Time;durP1;ratioP1;P1;durP2;ratioP2;P2;SDS_P1;SDS_P2;PMS_P1;PMS_P2;Temp;Humidity;BMP_temperature;BMP_pressure;BME280_temperature;BME280_humidity;BME280_pressure;Samples;Min_cycle;Max_cycle;Signal;HPM_P1;HPM_P2
2022/10/15 00:00:21;;;;;;;4.67;3.90;;;15.40;99.90;;;;;;5002550;28;20223;-73
2022/10/15 00:02:46;;;;;;;8.60;4.10;;;15.40;99.90;;;;;;5012677;28;20224;-73
2022/10/15 00:05:12;;;;;;;12.63;7.37;;;15.40;99.90;;;;;;5018831;28;20299;-73
2022/10/15 00:07:38;;;;;;;20.80;10.40;;;15.40;99.90;;;;;;5007845;28;20208;-74
2022/10/15 00:10:04;;;;;;;12.50;8.50;;;15.40;99.90;;;;;;5007693;28;20215;-72
2022/10/15 00:12:29;;;;;;;12.63;7.40;;;15.30;99.90;;;;;;5015640;28;20220;-72
2022/10/15 00:14:55;;;;;;;15.93;9.03;;;15.40;99.90;;;;;;5006914;28;20459;-74
2022/10/15 00:17:21;;;;;;;12.00;7.67;;;15.40;99.90;;;;;;5001911;28;20224;-73
2022/10/15 00:19:46;;;;;;;9.17;6.00;;;15.30;99.90;;;;;;5018614;28;20220;-72
2022/10/15 00:22:12;;;;;;;8.67;5.43;;;15.40;99.90;;;;;;5029706;28;20729;-72
2022/10/15 00:24:38;;;;;;;7.20;5.07;;;15.40;99.90;;;;;;5013128;28;20216;-71
2022/10/15 00:27:04;;;;;;;6.87;3.87;;;15.40;99.90;;;;;;5003917;28;20221;-71
2022/10/15 00:29:29;;;;;;;5.73;4.10;;;15.30;99.90;;;;;;5005145;28;20226;-72
2022/10/15 00:31:55;;;;;;;5.53;3.53;;;15.40;99.90;;;;;;5012803;28;20725;-73
2022/10/15 00:34:21;;;;;;;6.33;4.67;;;15.40;99.90;;;;;;4999766;28;20307;-74
2022/10/15 00:36:49;;;;;;;6.23;4.33;;;15.40;99.90;;;;;;4993848;28;20236;-72
2022/10/15 00:39:15;;;;;;;4.57;3.50;;;15.40;99.90;;;;;;5012370;28;20231;-72
2022/10/15 00:41:43;;;;;;;4.70;4.00;;;15.40;99.90;;;;;;4996407;28;20443;-72
2022/10/15 00:44:21;;;;;;;4.17;3.77;;;15.40;99.90;;;;;;5019568;28;20482;-72
2022/10/15 00:47:15;;;;;;;5.73;3.80;;;15.40;99.90;;;;;;5008485;28;20462;-74
2022/10/15 00:49:54;;;;;;;5.17;3.80;;;15.30;99.90;;;;;;4996817;28;20459;-73
2022/10/15 00:52:28;;;;;;;5.03;3.80;;;15.40;99.90;;;;;;5032764;28;20446;-74
2022/10/15 00:55:13;;;;;;;4.43;4.00;;;15.40;99.90;;;;;;5014379;28;20459;-74
2022/10/15 00:57:40;;;;;;;3.63;3.30;;;15.40;99.90;;;;;;5016218;28;20448;-74
2022/10/15 01:00:10;;;;;;;3.90;3.37;;;15.40;99.90;;;;;;5019380;28;20447;-72
2022/10/15 01:02:38;;;;;;;3.47;3.17;;;15.40;99.90;;;;;;5014766;28;20510;-73
2022/10/15 01:05:05;;;;;;;4.97;3.40;;;15.40;99.90;;;;;;5021451;28;20470;-73
2022/10/15 01:07:31;;;;;;;3.33;3.03;;;15.40;99.90;;;;;;5000818;28;20451;-72
2022/10/15 01:09:57;;;;;;;3.10;2.70;;;15.40;99.90;;;;;;5017951;28;20513;-73
2022/10/15 01:12:36;;;;;;;3.50;2.93;;;15.40;99.90;;;;;;5002683;28;20224;-73
2022/10/15 01:15:18;;;;;;;3.50;2.73;;;15.40;99.90;;;;;;5001843;28;20240;-72
2022/10/15 01:17:50;;;;;;;3.27;2.70;;;15.40;99.90;;;;;;4992888;28;20452;-72
2022/10/15 01:20:19;;;;;;;3.20;2.43;;;15.40;99.90;;;;;;5017043;28;20462;-73
2022/10/15 01:23:13;;;;;;;4.13;3.03;;;15.40;99.90;;;;;;5015494;28;20914;-72
2022/10/15 01:25:44;;;;;;;2.83;2.53;;;15.30;99.90;;;;;;5015103;28;20446;-72
2022/10/15 01:29:04;;;;;;;2.57;2.30;;;15.40;99.90;;;;;;5004299;28;20439;-73
2022/10/15 01:31:34;;;;;;;3.10;2.80;;;15.40;99.90;;;;;;5032290;28;20454;-72
2022/10/15 01:34:11;;;;;;;2.97;2.77;;;15.40;99.90;;;;;;5014690;28;20454;-73
2022/10/15 01:36:46;;;;;;;3.20;2.83;;;15.40;99.90;;;;;;5011160;28;20446;-72
2022/10/15 01:39:22;;;;;;;2.33;2.10;;;15.40;99.90;;;;;;5011246;28;20446;-73
2022/10/15 01:41:56;;;;;;;3.10;2.40;;;15.40;99.90;;;;;;5015037;28;20987;-72
2022/10/15 01:44:29;;;;;;;2.40;2.20;;;15.30;99.90;;;;;;5003153;28;20843;-74
2022/10/15 01:47:55;;;;;;;2.63;2.43;;;15.40;99.90;;;;;;4962065;28;20443;-73
2022/10/15 01:50:25;;;;;;;2.50;2.30;;;15.40;99.90;;;;;;5015244;28;20510;-73
2022/10/15 01:52:52;;;;;;;2.93;2.10;;;15.40;99.90;;;;;;5012549;28;20434;-71
2022/10/15 01:55:20;;;;;;;2.80;2.17;;;15.40;99.90;;;;;;5012277;28;20447;-73
2022/10/15 01:57:47;;;;;;;2.53;2.27;;;15.40;99.90;;;;;;5004710;28;20451;-73
2022/10/15 02:00:14;;;;;;;2.03;1.90;;;15.40;99.90;;;;;;5013963;28;20505;-73
2022/10/15 02:02:40;;;;;;;2.07;1.73;;;15.40;99.90;;;;;;5010788;28;20518;-73
2022/10/15 02:05:15;;;;;;;2.60;2.40;;;15.40;99.90;;;;;;5007065;28;20451;-72
2022/10/15 02:08:01;;;;;;;2.10;1.90;;;15.40;99.90;;;;;;5011577;28;20447;-72
2022/10/15 02:10:42;;;;;;;2.17;1.97;;;15.30;99.90;;;;;;5017988;28;20455;-72
2022/10/15 02:13:47;;;;;;;3.07;2.77;;;15.40;99.90;;;;;;5017893;28;20451;-73
2022/10/15 02:16:17;;;;;;;4.90;3.77;;;15.40;99.90;;;;;;5017057;28;20484;-72
2022/10/15 02:19:31;;;;;;;4.57;2.80;;;15.30;99.90;;;;;;5010364;28;20440;-72
2022/10/15 02:22:11;;;;;;;3.00;2.80;;;15.40;99.90;;;;;;4960183;28;20518;-72
2022/10/15 02:25:09;;;;;;;2.83;2.57;;;15.40;99.90;;;;;;4949304;28;20450;-72
2022/10/15 02:27:36;;;;;;;3.00;2.70;;;15.30;99.90;;;;;;5009185;28;20450;-73
2022/10/15 02:30:06;;;;;;;2.90;2.60;;;15.30;99.90;;;;;;5025909;28;20450;-73
2022/10/15 02:32:34;;;;;;;4.37;3.40;;;15.30;99.90;;;;;;5015636;28;20534;-72
2022/10/15 02:35:01;;;;;;;3.13;2.83;;;15.30;99.90;;;;;;5020865;28;20507;-73
2022/10/15 02:37:29;;;;;;;3.97;3.10;;;15.40;99.90;;;;;;5004854;28;20444;-73
2022/10/15 02:39:55;;;;;;;2.50;2.03;;;15.30;99.90;;;;;;5041076;28;20447;-73
2022/10/15 02:42:22;;;;;;;3.13;2.47;;;15.30;99.90;;;;;;4995648;28;20479;-74
2022/10/15 02:44:48;;;;;;;2.93;2.60;;;15.30;99.90;;;;;;5013170;28;20829;-73
2022/10/15 02:47:14;;;;;;;3.00;2.17;;;15.30;99.90;;;;;;5009198;28;20244;-73
2022/10/15 02:49:39;;;;;;;2.57;2.37;;;15.30;99.90;;;;;;5014534;28;20695;-74
2022/10/15 02:52:06;;;;;;;2.63;2.00;;;15.30;99.90;;;;;;4998237;28;20215;-73
2022/10/15 02:54:31;;;;;;;2.23;2.03;;;15.30;99.90;;;;;;4995661;28;20447;-74
2022/10/15 02:56:59;;;;;;;2.30;1.90;;;15.30;99.90;;;;;;5017109;28;20228;-73
2022/10/15 02:59:24;;;;;;;2.07;1.80;;;15.30;99.90;;;;;;5023425;28;20450;-74
2022/10/15 03:01:50;;;;;;;1.63;1.53;;;15.30;99.90;;;;;;5034529;28;20389;-72
2022/10/15 03:04:16;;;;;;;3.90;2.27;;;15.30;99.90;;;;;;5025564;28;20876;-73
2022/10/15 03:06:43;;;;;;;2.10;1.87;;;15.30;99.90;;;;;;5010880;28;20455;-73
2022/10/15 03:09:09;;;;;;;1.73;1.60;;;15.30;99.90;;;;;;5019025;28;21014;-72
2022/10/15 03:11:37;;;;;;;2.17;1.97;;;15.30;99.90;;;;;;5010438;28;20496;-72
2022/10/15 03:14:05;;;;;;;3.40;1.40;;;15.30;99.90;;;;;;5022267;28;20967;-72
2022/10/15 03:16:32;;;;;;;2.13;1.80;;;15.30;99.90;;;;;;4995240;28;21024;-73
2022/10/15 03:18:58;;;;;;;2.00;1.80;;;15.30;99.90;;;;;;4995008;28;20465;-73
2022/10/15 03:21:24;;;;;;;1.63;1.37;;;15.30;99.90;;;;;;5031988;28;20227;-73
2022/10/15 03:23:54;;;;;;;2.03;1.50;;;15.30;99.90;;;;;;5008761;28;20748;-72
2022/10/15 03:26:22;;;;;;;2.30;2.03;;;15.30;99.90;;;;;;5018339;28;20821;-73
2022/10/15 03:28:49;;;;;;;2.40;1.73;;;15.30;99.90;;;;;;5017781;28;20474;-72
2022/10/15 03:31:27;;;;;;;2.83;1.90;;;15.20;99.90;;;;;;5020435;28;20469;-74
2022/10/15 03:33:55;;;;;;;2.93;1.83;;;15.20;99.90;;;;;;4995934;28;20467;-73
2022/10/15 03:36:23;;;;;;;2.10;1.73;;;15.20;99.90;;;;;;5013575;28;20822;-74
2022/10/15 03:38:50;;;;;;;2.97;2.10;;;15.20;99.90;;;;;;5017808;28;20455;-72
2022/10/15 03:41:15;;;;;;;2.53;2.07;;;15.20;99.90;;;;;;5013268;28;20464;-73
2022/10/15 03:43:42;;;;;;;2.53;2.13;;;15.20;99.90;;;;;;4994676;28;20225;-72
2022/10/15 03:46:08;;;;;;;2.37;2.17;;;15.20;99.90;;;;;;4997998;28;20535;-73
2022/10/15 03:48:38;;;;;;;1.90;1.73;;;15.20;99.90;;;;;;5022913;28;20458;-72
2022/10/15 03:51:04;;;;;;;2.43;1.87;;;15.20;99.90;;;;;;5014535;28;20463;-72
2022/10/15 03:53:30;;;;;;;3.70;1.83;;;15.20;99.90;;;;;;4999595;28;20219;-72
2022/10/15 03:56:02;;;;;;;3.20;1.90;;;15.20;99.90;;;;;;5013509;28;20758;-74
2022/10/15 03:58:28;;;;;;;2.33;2.10;;;15.20;99.90;;;;;;5000343;28;20217;-73
2022/10/15 04:00:57;;;;;;;2.43;2.07;;;15.20;99.90;;;;;;4996931;28;20444;-71
2022/10/15 04:03:23;;;;;;;2.40;1.73;;;15.20;99.90;;;;;;5024216;28;20520;-73
2022/10/15 04:05:52;;;;;;;2.40;2.03;;;15.20;99.90;;;;;;5005287;28;20269;-71
2022/10/15 04:08:20;;;;;;;3.17;1.70;;;15.10;99.90;;;;;;5017203;28;20574;-72
2022/10/15 04:10:46;;;;;;;3.20;2.70;;;15.10;99.90;;;;;;5013482;28;20443;-71
2022/10/15 04:13:11;;;;;;;2.97;2.63;;;15.10;99.90;;;;;;5001181;28;20295;-72
2022/10/15 04:15:39;;;;;;;2.60;2.03;;;15.10;99.90;;;;;;5022146;28;20703;-71
2022/10/15 04:18:08;;;;;;;2.83;1.97;;;15.10;99.90;;;;;;5013464;28;20526;-72
2022/10/15 04:20:35;;;;;;;1.93;1.70;;;15.10;99.90;;;;;;5015613;28;20508;-71
2022/10/15 04:23:11;;;;;;;1.50;1.40;;;15.10;99.90;;;;;;5005391;28;20539;-72
2022/10/15 04:25:39;;;;;;;1.90;1.60;;;15.10;99.90;;;;;;5040196;28;20451;-71
2022/10/15 04:28:06;;;;;;;2.30;2.10;;;15.10;99.90;;;;;;5031824;28;20543;-72
2022/10/15 04:30:33;;;;;;;1.60;1.50;;;15.10;99.90;;;;;;5003909;28;21079;-72
2022/10/15 04:33:02;;;;;;;6.00;1.63;;;15.10;99.90;;;;;;5014208;28;20463;-73
2022/10/15 04:35:28;;;;;;;1.67;1.50;;;15.10;99.90;;;;;;5010498;28;20450;-72
2022/10/15 04:38:22;;;;;;;1.33;1.23;;;15.10;99.90;;;;;;5013396;28;20220;-73
2022/10/15 04:41:09;;;;;;;2.37;1.83;;;15.10;99.90;;;;;;5015084;28;20450;-72
2022/10/15 04:44:01;;;;;;;1.73;1.13;;;15.10;99.90;;;;;;5007462;28;20922;-72
2022/10/15 04:46:29;;;;;;;1.20;1.10;;;15.00;99.90;;;;;;5017973;28;20459;-72
2022/10/15 04:48:57;;;;;;;1.17;1.10;;;15.00;99.90;;;;;;5016430;28;20451;-72
2022/10/15 04:51:25;;;;;;;1.67;1.57;;;15.00;99.90;;;;;;5013379;28;20519;-72
2022/10/15 04:54:01;;;;;;;2.10;1.87;;;15.00;99.90;;;;;;4997557;28;20478;-73
2022/10/15 04:56:28;;;;;;;2.50;2.20;;;15.00;99.90;;;;;;4997151;28;20513;-72
2022/10/15 04:58:54;;;;;;;1.83;1.73;;;15.00;99.90;;;;;;5019886;28;20538;-73
2022/10/15 05:01:22;;;;;;;1.77;1.67;;;15.00;99.90;;;;;;5020319;28;20306;-72
2022/10/15 05:03:55;;;;;;;2.90;1.97;;;15.00;99.90;;;;;;5020982;28;20493;-72
2022/10/15 05:06:21;;;;;;;2.07;1.90;;;15.00;99.90;;;;;;5015732;28;20554;-73
2022/10/15 05:08:50;;;;;;;2.20;1.70;;;15.00;99.90;;;;;;5006100;28;20347;-72
2022/10/15 05:11:24;;;;;;;2.90;1.60;;;15.00;99.90;;;;;;5004645;28;20493;-73
2022/10/15 05:13:53;;;;;;;3.13;2.17;;;15.00;99.90;;;;;;5013296;28;20521;-73
2022/10/15 05:16:27;;;;;;;1.53;1.43;;;15.00;99.90;;;;;;5022077;28;20458;-72
2022/10/15 05:18:59;;;;;;;1.63;1.53;;;15.00;99.90;;;;;;5011693;28;20463;-72
2022/10/15 05:21:25;;;;;;;1.10;0.83;;;15.00;99.90;;;;;;5010431;28;20595;-73
2022/10/15 05:23:54;;;;;;;1.63;1.30;;;15.00;99.90;;;;;;5016652;28;20517;-72
2022/10/15 05:26:40;;;;;;;2.10;1.30;;;15.00;99.90;;;;;;5023080;28;20535;-73
2022/10/15 05:29:05;;;;;;;4.60;1.60;;;15.00;99.90;;;;;;5029580;28;20545;-72
2022/10/15 05:31:32;;;;;;;1.73;1.63;;;15.00;99.90;;;;;;5016395;28;20220;-72
2022/10/15 05:34:06;;;;;;;1.27;1.17;;;15.00;99.90;;;;;;5008244;28;20228;-71
2022/10/15 05:36:35;;;;;;;1.80;1.17;;;14.90;99.90;;;;;;5023679;28;20491;-72
2022/10/15 05:39:03;;;;;;;3.70;1.13;;;14.90;99.90;;;;;;5006645;28;20439;-71
2022/10/15 05:41:33;;;;;;;0.97;0.93;;;14.90;99.90;;;;;;5007427;28;20565;-72
2022/10/15 05:43:59;;;;;;;1.53;1.33;;;14.90;99.90;;;;;;5011420;28;20991;-72
2022/10/15 05:46:27;;;;;;;1.13;1.00;;;14.90;99.90;;;;;;4993358;28;20216;-74
2022/10/15 05:48:55;;;;;;;1.00;0.90;;;14.90;99.90;;;;;;5015887;28;21099;-73
2022/10/15 05:51:22;;;;;;;1.23;0.97;;;14.90;99.90;;;;;;5027100;28;20235;-73
2022/10/15 05:53:52;;;;;;;1.20;1.10;;;14.90;99.90;;;;;;4998639;28;20978;-72
2022/10/15 05:56:18;;;;;;;2.00;1.27;;;14.90;99.90;;;;;;5015885;28;21051;-73
2022/10/15 05:58:44;;;;;;;1.13;1.03;;;14.90;99.90;;;;;;5005417;28;20459;-71
2022/10/15 06:01:11;;;;;;;0.93;0.87;;;14.90;99.90;;;;;;5004563;28;21005;-72
2022/10/15 06:03:38;;;;;;;0.90;0.90;;;14.90;99.90;;;;;;5003680;28;20224;-72
2022/10/15 06:06:11;;;;;;;1.63;0.90;;;14.90;99.90;;;;;;4996562;28;20527;-71
2022/10/15 06:08:37;;;;;;;1.10;1.00;;;14.90;99.90;;;;;;5003746;28;20448;-72
2022/10/15 06:11:03;;;;;;;1.70;1.60;;;14.90;99.90;;;;;;5000402;28;20466;-72
2022/10/15 06:13:28;;;;;;;1.47;1.30;;;14.90;99.90;;;;;;5026955;28;20220;-72
2022/10/15 06:15:54;;;;;;;2.17;1.60;;;14.90;99.90;;;;;;5024662;28;20285;-73
2022/10/15 06:18:20;;;;;;;1.33;1.23;;;14.90;99.90;;;;;;5020664;28;20650;-72
2022/10/15 06:20:51;;;;;;;0.80;0.80;;;14.90;99.90;;;;;;5009075;28;20217;-72
2022/10/15 06:23:17;;;;;;;1.30;1.20;;;14.90;99.90;;;;;;5012271;28;20299;-73
2022/10/15 06:25:43;;;;;;;1.37;0.80;;;14.90;99.90;;;;;;4994948;28;20463;-73
2022/10/15 06:28:09;;;;;;;1.10;1.00;;;14.90;99.90;;;;;;5025097;28;20461;-72
2022/10/15 06:30:40;;;;;;;0.90;0.80;;;14.90;99.90;;;;;;5007991;28;20220;-71
2022/10/15 06:33:06;;;;;;;1.13;0.97;;;14.90;99.90;;;;;;5014552;28;20455;-73
2022/10/15 06:35:34;;;;;;;1.07;0.97;;;14.90;99.90;;;;;;5027237;28;20610;-73
2022/10/15 06:38:03;;;;;;;1.70;1.00;;;14.90;99.90;;;;;;5011891;28;20240;-72
2022/10/15 06:40:30;;;;;;;1.00;1.00;;;15.00;99.90;;;;;;5012483;28;20962;-73
2022/10/15 06:43:06;;;;;;;1.00;0.90;;;15.00;99.90;;;;;;5012347;28;20463;-73
2022/10/15 06:45:35;;;;;;;1.30;1.20;;;15.00;99.90;;;;;;4998284;28;20454;-71
2022/10/15 06:48:06;;;;;;;1.27;1.20;;;14.90;99.90;;;;;;5000714;28;20451;-71
2022/10/15 06:50:35;;;;;;;1.20;1.00;;;15.00;99.90;;;;;;5008726;28;20439;-72
2022/10/15 06:53:01;;;;;;;0.97;0.87;;;15.00;99.90;;;;;;5014240;28;20440;-73
2022/10/15 06:55:30;;;;;;;1.30;1.20;;;14.90;99.90;;;;;;5011259;28;20477;-73
2022/10/15 06:57:56;;;;;;;0.97;0.97;;;15.00;99.90;;;;;;4994413;28;20447;-73
2022/10/15 07:00:25;;;;;;;1.20;1.00;;;15.00;99.90;;;;;;5018733;28;20549;-72
2022/10/15 07:02:52;;;;;;;1.13;1.03;;;15.00;99.90;;;;;;5014808;28;20525;-73
2022/10/15 07:05:19;;;;;;;2.27;1.13;;;15.00;99.90;;;;;;5019527;28;21038;-72
2022/10/15 07:07:54;;;;;;;0.83;0.80;;;15.00;99.90;;;;;;5015388;28;20450;-72
2022/10/15 07:10:21;;;;;;;1.80;1.27;;;15.00;99.90;;;;;;5024930;28;20459;-73
2022/10/15 07:12:47;;;;;;;1.40;1.30;;;14.90;99.90;;;;;;5025813;28;20466;-72
2022/10/15 07:15:13;;;;;;;5.50;2.00;;;15.00;99.90;;;;;;5006443;28;20463;-71
2022/10/15 07:17:38;;;;;;;4.60;3.20;;;15.00;99.90;;;;;;5014797;28;20303;-72
2022/10/15 07:20:05;;;;;;;43.40;15.43;;;15.00;99.90;;;;;;5019181;28;20223;-73
2022/10/15 07:22:31;;;;;;;61.90;23.20;;;15.00;99.90;;;;;;5027367;28;20319;-73
2022/10/15 07:24:57;;;;;;;47.10;18.50;;;15.00;99.90;;;;;;5033397;28;20539;-73
2022/10/15 07:27:22;;;;;;;41.43;18.97;;;15.00;99.90;;;;;;5012897;28;20676;-73
2022/10/15 07:29:51;;;;;;;44.57;19.27;;;15.00;99.90;;;;;;5014587;28;20311;-73
2022/10/15 07:32:17;;;;;;;40.93;17.33;;;15.00;99.90;;;;;;5034212;28;20473;-73
2022/10/15 07:34:43;;;;;;;30.00;14.20;;;15.00;99.90;;;;;;5020920;28;20495;-73
2022/10/15 07:37:09;;;;;;;23.43;12.70;;;15.00;99.90;;;;;;5024242;28;20228;-74
2022/10/15 07:39:34;;;;;;;36.90;15.17;;;15.00;99.90;;;;;;5038381;28;20458;-73
2022/10/15 07:42:00;;;;;;;21.00;11.83;;;15.00;99.90;;;;;;5032871;28;20870;-73
2022/10/15 07:44:26;;;;;;;17.30;10.07;;;15.00;99.90;;;;;;5036608;28;20279;-73
2022/10/15 07:46:52;;;;;;;15.03;9.10;;;15.00;99.90;;;;;;5022311;28;20692;-72
2022/10/15 07:49:17;;;;;;;15.57;10.30;;;15.10;99.90;;;;;;5015290;28;20260;-71
2022/10/15 07:51:44;;;;;;;31.40;16.47;;;15.10;99.90;;;;;;4997090;28;20224;-72
2022/10/15 07:54:09;;;;;;;46.17;25.90;;;15.10;99.90;;;;;;5012250;28;20447;-71
2022/10/15 07:56:35;;;;;;;28.80;18.53;;;15.10;99.90;;;;;;5019377;28;20311;-73
2022/10/15 07:59:01;;;;;;;30.20;20.50;;;15.10;99.90;;;;;;5018952;28;20220;-72
2022/10/15 08:01:26;;;;;;;33.50;19.27;;;15.10;99.90;;;;;;5031799;28;20228;-71
2022/10/15 08:03:52;;;;;;;30.30;16.87;;;15.10;99.90;;;;;;5021439;28;20611;-71
2022/10/15 08:06:18;;;;;;;25.10;16.40;;;15.10;99.90;;;;;;5038763;28;20227;-72
2022/10/15 08:08:44;;;;;;;23.47;13.47;;;15.10;99.90;;;;;;5015124;28;20351;-73
2022/10/15 08:11:12;;;;;;;16.93;11.30;;;15.20;99.90;;;;;;5012898;28;20220;-70
2022/10/15 08:13:40;;;;;;;18.83;12.77;;;15.20;99.90;;;;;;5015014;28;20225;-72
2022/10/15 08:16:07;;;;;;;15.50;10.73;;;15.20;99.90;;;;;;5018552;28;20544;-72
2022/10/15 08:18:34;;;;;;;15.30;11.57;;;15.20;99.90;;;;;;4998243;28;20512;-72
2022/10/15 08:21:00;;;;;;;12.63;10.20;;;15.20;99.90;;;;;;5005504;28;20464;-71
2022/10/15 08:23:26;;;;;;;14.47;8.90;;;15.20;99.90;;;;;;5016751;28;20485;-73
2022/10/15 08:25:52;;;;;;;14.23;8.10;;;15.20;99.90;;;;;;5012576;28;20482;-72
2022/10/15 08:28:17;;;;;;;13.30;7.70;;;15.20;99.90;;;;;;5016030;28;20502;-72
2022/10/15 08:30:43;;;;;;;6.90;4.90;;;15.20;99.90;;;;;;5020496;28;20212;-72
2022/10/15 08:33:11;;;;;;;9.90;4.30;;;15.30;99.90;;;;;;5017808;28;20218;-73
2022/10/15 08:35:40;;;;;;;5.20;3.67;;;15.30;99.90;;;;;;5027848;28;20475;-73
2022/10/15 08:38:06;;;;;;;4.47;3.40;;;15.30;99.90;;;;;;5014224;28;20818;-73
2022/10/15 08:40:32;;;;;;;2.90;2.60;;;15.40;99.90;;;;;;5016787;28;20559;-72
2022/10/15 08:42:59;;;;;;;2.87;2.60;;;15.40;99.90;;;;;;5002230;28;20482;-72
2022/10/15 08:45:30;;;;;;;2.83;2.40;;;15.40;99.90;;;;;;5004451;28;20553;-72
2022/10/15 08:48:25;;;;;;;2.10;1.90;;;15.50;99.90;;;;;;5015744;28;20213;-72
2022/10/15 08:51:09;;;;;;;2.83;2.40;;;15.50;99.90;;;;;;4995937;28;20486;-73
2022/10/15 08:53:43;;;;;;;2.23;2.03;;;15.50;99.90;;;;;;4993575;28;20460;-72
2022/10/15 08:56:28;;;;;;;2.23;2.03;;;15.50;99.90;;;;;;5000811;28;20460;-72
2022/10/15 08:59:14;;;;;;;3.60;2.57;;;15.50;99.90;;;;;;5017086;28;20472;-73
2022/10/15 09:01:55;;;;;;;2.33;2.13;;;15.60;99.90;;;;;;5009210;28;20451;-72
2022/10/15 09:04:46;;;;;;;2.50;2.23;;;15.60;99.90;;;;;;5001564;28;20986;-73
2022/10/15 09:07:23;;;;;;;1.83;1.73;;;15.60;99.90;;;;;;5000217;28;20447;-72
2022/10/15 09:10:12;;;;;;;2.13;1.90;;;15.60;99.90;;;;;;5013888;28;20455;-72
2022/10/15 09:13:01;;;;;;;4.20;2.00;;;15.70;99.90;;;;;;5020042;28;20500;-72
2022/10/15 09:15:31;;;;;;;2.13;1.93;;;15.80;99.90;;;;;;5016001;28;20455;-73
2022/10/15 09:17:56;;;;;;;2.43;2.23;;;15.80;99.90;;;;;;5015377;28;20439;-72
2022/10/15 09:20:33;;;;;;;2.90;2.30;;;15.90;99.90;;;;;;5020030;28;20439;-72
2022/10/15 09:22:59;;;;;;;2.43;2.30;;;15.90;99.90;;;;;;5009323;28;21012;-72
2022/10/15 09:25:34;;;;;;;2.90;2.70;;;15.90;99.90;;;;;;5018634;28;20455;-72
2022/10/15 09:28:09;;;;;;;3.80;3.30;;;16.00;99.90;;;;;;5019050;28;20243;-72
2022/10/15 09:30:44;;;;;;;2.33;2.13;;;16.00;99.90;;;;;;5024788;28;20529;-73
2022/10/15 09:33:21;;;;;;;3.37;3.07;;;16.00;99.90;;;;;;5015629;28;20483;-72
2022/10/15 09:36:08;;;;;;;3.30;3.00;;;16.10;99.90;;;;;;4997871;28;20490;-71
2022/10/15 09:39:11;;;;;;;3.87;3.23;;;16.10;99.90;;;;;;5014830;28;20571;-72
2022/10/15 09:41:50;;;;;;;3.17;2.87;;;16.20;99.90;;;;;;5025504;28;20459;-72
2022/10/15 09:44:17;;;;;;;3.40;3.10;;;16.20;99.90;;;;;;5020248;28;20509;-73
2022/10/15 09:46:48;;;;;;;3.63;2.87;;;16.30;99.90;;;;;;5035403;28;20455;-72
2022/10/15 09:49:32;;;;;;;8.00;2.90;;;16.20;99.90;;;;;;5009920;28;20505;-71
2022/10/15 09:52:34;;;;;;;2.67;2.47;;;16.30;99.90;;;;;;5027841;28;20438;-71
2022/10/15 09:55:30;;;;;;;3.23;2.30;;;16.40;99.90;;;;;;5024405;28;20446;-73
2022/10/15 09:58:00;;;;;;;2.10;1.90;;;16.40;99.90;;;;;;5015300;28;21042;-72
2022/10/15 10:00:52;;;;;;;2.80;2.30;;;16.40;99.90;;;;;;5006026;28;20511;-72
2022/10/15 10:03:17;;;;;;;1.80;1.70;;;16.50;99.90;;;;;;5022516;28;20520;-72
2022/10/15 10:05:44;;;;;;;3.47;1.53;;;16.50;99.90;;;;;;5031653;28;20459;-72
2022/10/15 10:08:18;;;;;;;1.60;1.37;;;16.50;99.90;;;;;;5005238;28;20221;-72
2022/10/15 10:10:52;;;;;;;1.60;1.20;;;16.60;99.90;;;;;;5003405;28;20470;-72
2022/10/15 10:13:33;;;;;;;1.27;1.20;;;16.70;99.90;;;;;;5003825;28;20452;-72
2022/10/15 10:16:05;;;;;;;2.07;1.20;;;16.70;99.90;;;;;;5016679;28;20467;-72
2022/10/15 10:18:31;;;;;;;4.20;1.60;;;16.80;99.90;;;;;;5011769;28;20469;-73
2022/10/15 10:21:00;;;;;;;1.40;1.13;;;16.80;99.90;;;;;;5021221;28;20462;-73
2022/10/15 10:23:44;;;;;;;3.80;1.60;;;16.90;99.90;;;;;;5019275;28;20470;-73
2022/10/15 10:26:10;;;;;;;1.37;1.27;;;17.00;99.90;;;;;;5011385;28;20458;-72
2022/10/15 10:28:42;;;;;;;1.43;1.33;;;17.00;99.90;;;;;;4992337;28;20471;-72
2022/10/15 10:31:09;;;;;;;1.30;1.20;;;17.00;99.90;;;;;;5016106;28;20459;-73
2022/10/15 10:33:41;;;;;;;1.00;1.00;;;17.00;99.90;;;;;;4997898;28;20819;-73
2022/10/15 10:36:18;;;;;;;1.77;1.40;;;17.00;99.90;;;;;;5012300;28;20462;-72
2022/10/15 10:38:55;;;;;;;0.90;0.90;;;17.10;99.90;;;;;;5009124;28;20466;-72
2022/10/15 10:41:21;;;;;;;1.43;1.33;;;17.10;99.90;;;;;;5019793;28;20463;-72
2022/10/15 10:43:54;;;;;;;1.10;1.10;;;17.20;99.90;;;;;;5016863;28;20839;-73
2022/10/15 10:46:23;;;;;;;1.20;1.20;;;17.40;99.90;;;;;;5019068;28;20220;-72
2022/10/15 10:48:51;;;;;;;1.50;1.40;;;17.50;99.90;;;;;;5019515;28;20467;-71
2022/10/15 10:51:25;;;;;;;1.87;1.20;;;17.60;99.90;;;;;;5018857;28;20450;-72
2022/10/15 10:54:01;;;;;;;1.23;1.13;;;17.80;99.90;;;;;;5022246;28;20450;-72
2022/10/15 10:56:38;;;;;;;2.07;1.30;;;17.90;99.90;;;;;;5011484;28;20482;-73
2022/10/15 10:59:29;;;;;;;1.37;1.27;;;17.90;99.90;;;;;;5014604;28;20452;-73
2022/10/15 11:01:56;;;;;;;1.97;1.30;;;18.00;99.90;;;;;;5014918;28;20455;-72
2022/10/15 11:04:30;;;;;;;1.20;1.10;;;18.00;99.90;;;;;;5015613;28;20462;-72
2022/10/15 11:07:07;;;;;;;1.00;1.00;;;17.90;99.90;;;;;;4997329;28;20482;-73
2022/10/15 11:09:52;;;;;;;1.20;1.10;;;17.90;99.90;;;;;;5007892;28;20508;-72
2022/10/15 11:12:39;;;;;;;1.17;1.07;;;17.90;99.90;;;;;;5028936;28;20455;-72
2022/10/15 11:15:22;;;;;;;1.50;1.40;;;17.90;99.90;;;;;;5013791;28;20456;-71
2022/10/15 11:18:06;;;;;;;1.73;1.30;;;17.90;99.90;;;;;;5002919;28;20477;-71
2022/10/15 11:20:46;;;;;;;2.40;1.40;;;18.00;99.90;;;;;;5013081;28;20458;-73
2022/10/15 11:23:26;;;;;;;1.90;1.80;;;18.00;99.90;;;;;;5029787;28;20458;-73
2022/10/15 11:26:21;;;;;;;1.70;1.60;;;17.90;99.90;;;;;;4996253;28;20470;-73
2022/10/15 11:29:11;;;;;;;1.43;1.33;;;17.90;99.90;;;;;;5021271;28;20451;-73
2022/10/15 11:31:43;;;;;;;1.70;1.60;;;18.00;99.90;;;;;;5020200;28;20477;-74
2022/10/15 11:34:35;;;;;;;1.57;1.47;;;18.00;99.90;;;;;;5038417;28;20802;-71
2022/10/15 11:37:25;;;;;;;1.47;1.07;;;18.00;99.90;;;;;;5013883;28;20473;-72
2022/10/15 11:40:19;;;;;;;2.33;1.60;;;18.10;99.90;;;;;;5014993;28;20530;-73
2022/10/15 11:42:58;;;;;;;1.63;1.30;;;18.10;99.90;;;;;;5014768;28;20829;-73
2022/10/15 11:45:43;;;;;;;1.20;1.20;;;18.20;99.90;;;;;;5021408;28;20534;-72
2022/10/15 11:48:24;;;;;;;1.37;1.10;;;18.20;99.90;;;;;;5017235;28;20447;-74
2022/10/15 11:51:01;;;;;;;0.90;0.90;;;18.30;99.90;;;;;;5016545;28;20846;-74
2022/10/15 11:54:00;;;;;;;1.17;1.17;;;18.30;99.90;;;;;;5016930;28;20987;-73
2022/10/15 11:56:34;;;;;;;0.90;0.90;;;18.30;99.90;;;;;;5032361;28;20463;-73
2022/10/15 11:59:09;;;;;;;3.63;1.10;;;18.30;99.90;;;;;;5017942;28;20465;-73
2022/10/15 12:01:45;;;;;;;0.87;0.87;;;18.30;99.90;;;;;;5026266;28;20466;-73
2022/10/15 12:04:37;;;;;;;1.00;1.00;;;18.20;99.90;;;;;;5012754;28;20474;-73
2022/10/15 12:07:06;;;;;;;2.13;1.10;;;18.20;99.90;;;;;;5028369;28;20459;-73
2022/10/15 12:09:38;;;;;;;1.03;1.00;;;18.20;99.90;;;;;;5000396;28;20457;-73
2022/10/15 12:12:41;;;;;;;0.90;0.90;;;18.30;99.90;;;;;;5027228;28;20466;-73
2022/10/15 12:15:31;;;;;;;0.93;0.83;;;18.20;99.90;;;;;;5032810;28;20461;-73
2022/10/15 12:18:03;;;;;;;0.90;0.90;;;18.30;99.90;;;;;;5011624;28;20451;-73
2022/10/15 12:20:30;;;;;;;1.93;0.90;;;18.30;99.90;;;;;;5004690;28;20466;-73
2022/10/15 12:22:58;;;;;;;0.80;0.70;;;18.30;99.90;;;;;;5010763;28;20471;-73
2022/10/15 12:25:33;;;;;;;0.67;0.67;;;18.30;99.90;;;;;;5016483;28;20447;-73
2022/10/15 12:28:20;;;;;;;1.03;0.87;;;18.40;99.90;;;;;;5014113;28;20493;-73
2022/10/15 12:31:03;;;;;;;0.70;0.70;;;18.40;99.90;;;;;;5019300;28;20550;-73
2022/10/15 12:33:42;;;;;;;0.80;0.80;;;18.40;99.90;;;;;;5015284;28;20505;-73
2022/10/15 12:36:27;;;;;;;1.67;0.53;;;18.40;99.90;;;;;;5012395;28;20459;-73
2022/10/15 12:39:06;;;;;;;3.07;0.90;;;18.50;99.90;;;;;;5016179;28;20459;-74
2022/10/15 12:41:41;;;;;;;0.60;0.50;;;18.50;99.90;;;;;;5014039;28;20456;-74
2022/10/15 12:44:19;;;;;;;0.50;0.50;;;18.50;99.90;;;;;;5000408;28;20467;-73
2022/10/15 12:46:48;;;;;;;1.90;0.57;;;18.50;99.90;;;;;;5013839;28;20466;-72
2022/10/15 12:49:40;;;;;;;0.63;0.63;;;18.50;99.90;;;;;;5029089;28;20471;-73
2022/10/15 12:52:51;;;;;;;0.50;0.50;;;18.60;99.90;;;;;;5023361;28;20466;-73
2022/10/15 12:55:29;;;;;;;2.30;0.60;;;18.60;99.90;;;;;;5001272;28;20463;-72
2022/10/15 12:58:00;;;;;;;0.50;0.50;;;18.60;99.90;;;;;;5010369;28;20461;-72
2022/10/15 13:00:40;;;;;;;1.43;0.50;;;18.60;99.90;;;;;;5015720;28;20903;-73
2022/10/15 13:03:32;;;;;;;0.50;0.40;;;18.60;99.90;;;;;;5003673;28;20993;-73
2022/10/15 13:06:24;;;;;;;0.70;0.33;;;18.50;99.90;;;;;;5028167;28;20981;-73
2022/10/15 13:08:52;;;;;;;0.93;0.50;;;18.50;99.90;;;;;;5010134;28;20522;-73
2022/10/15 13:11:23;;;;;;;0.50;0.37;;;18.50;99.90;;;;;;5012209;28;20447;-73
2022/10/15 13:13:55;;;;;;;0.40;0.40;;;18.50;99.90;;;;;;5026982;28;20459;-74